x

Neah Bay, - 6nm North Of Cape Flattery, Wa (traffic Separation Lighted Buoy) (46087) Wave Buoy

4:50pm - Tue 25th Nov 2014 All times are PST. -8 hours from GMT.

  • Sig Wave height 6.9ft
  • Swell Direction
  • Peak Period 12s
  • Average Period 7s
  • Wind
    22mph, 27mph gusts
  • Sea Temp 53°f
  • Air Temp 48°f
  • Sea Pressure 1019.9mb
  • Neah Bay, - 6nm North Of Cape Flattery, Wa     (traffic Separation Lighted Buoy)
  • Neah Bay, - 6nm North Of Cape Flattery, Wa     (traffic Separation Lighted Buoy)

More Historic Weather Station data

Upgrade to MSW Pro to gain access to the past 30 days of data for over 8000 Wavebouys and Weather Stations around the globe.

Join Pro

Comparision Forecast

View Surf forecast
   
Tue 11/25 4:50pm 7ft 12s 7s 22 27 mph 1019.9mb 53f 48f
4:20pm  -   -   -  22 27 mph 1020mb 53f 47f
3:50pm 7ft 11s 7s 25 29 mph 1020mb 53f 47f
3:20pm  -   -   -  25 31 mph 1020mb 53f 47f
2:50pm 6.5ft 12s 6s 22 25 mph 1020.3mb 53f 48f
2:20pm  -   -   -  20 27 mph 1020.7mb 53f 48f
1:50pm 8ft 11s 7s 22 27 mph 1020.8mb 53f 47f
1:20pm  -   -   -  20 27 mph 1021.2mb 53f 48f
12:50pm 8ft 12s 7s 22 25 mph 1021.6mb 53f 48f
12:20pm  -   -   -  20 25 mph 1021.9mb 53f 48f
11:50am 7ft 12s 7s 22 27 mph 1021.9mb 53f 48f
11:20am  -   -   -  25 29 mph 1022.2mb 53f 48f
10:50am 7ft 11s 8s 25 31 mph 1022mb 53f 48f
10:20am  -   -   -  20 25 mph 1022.4mb 53f 49f
9:50am 8ft 13s 9s 2 4 mph 1022.3mb 53f 49f
9:20am  -   -   -   -  2 mph 1022.4mb 53f 49f
8:50am 8ft 13s 8s 4 7 mph 1022.2mb 53f 49f
8:20am  -   -   -  2 4 mph 1021.9mb 53f 50f
7:50am 7ft 12s 8s 4 7 mph 1022mb 53f 51f
7:20am  -   -   -  7
mph
1021.6mb 53f 51f
6:50am 7ft 8s 8s 9 11 mph 1021.6mb 53f 52f
6:20am  -   -   -  7 9 mph 1021.7mb 53f 50f
5:50am 6.5ft 12s 7s 11 13 mph 1021.4mb 53f 52f
5:20am  -   -   -  9 11 mph 1021mb 53f 52f
4:50am 7.5ft 10s 8s 9 11 mph 1021.1mb 53f 52f
4:20am  -   -   -  7 11 mph 1020.7mb 53f 52f
3:50am 8.5ft 11s 8s 4 7 mph 1020.5mb 52f 52f
3:20am  -   -   -  9 11 mph 1020.6mb 51f 52f
2:50am 8.5ft 8s 7s 11 13 mph 1020.7mb 51f 52f
2:20am  -   -   -  9 11 mph 1020.3mb 51f 52f
1:50am 9ft 8s 7s 9 13 mph 1020.2mb 52f 52f
1:20am  -   -   -  11 13 mph 1020.2mb 52f 52f
12:50am 10ft 12s 8s 9 13 mph 1019.8mb 51f 52f
12:20am  -   -   -  11 16 mph 1019.7mb 51f 52f
Mon 11/24 11:50pm 11ft 11s 8s 9 13 mph 1019.2mb 51f 53f
11:20pm  -   -   -  11 13 mph 1018.9mb 51f 52f
10:50pm 10.5ft 8s 8s 13 16 mph 1018.4mb 51f 52f
10:20pm  -   -   -  11 18 mph 1018.4mb 51f 53f
9:50pm 9.5ft 12s 9s 11 16 mph 1017.9mb 51f 53f
9:20pm  -   -   -  11 13 mph 1017.8mb 51f 53f
8:50pm 8ft 11s 8s 11 16 mph 1017.7mb 53f 53f
8:20pm  -   -   -  11 16 mph 1017.2mb 53f 53f
7:50pm 8.5ft 13s 7s 9 13 mph 1016.8mb 53f 53f
7:20pm  -   -   -  13 16 mph 1016.7mb 53f 54f
6:50pm 8.5ft 13s 7s 18 22 mph 1016.5mb 53f 53f
6:20pm  -   -   -  25 31 mph 1016.2mb 53f 53f
5:50pm 8ft 11s 7s 13 27 mph 1016.8mb 53f 51f
5:20pm  -   -   -  16 20 mph 1017.1mb 53f 49f
4:50pm 7.5ft 13s 7s 18 22 mph 1016.9mb 53f 49f
4:20pm  -   -   -  18 22 mph 1017.4mb 53f 49f
3:50pm 7.5ft 12s 7s 18 27 mph 1017.4mb 53f 50f
3:20pm  -   -   -  16 20 mph 1018.1mb 53f 50f
2:50pm 8.5ft 13s 7s 20 27 mph 1018.7mb 53f 53f
2:20pm  -   -   -  25 29 mph 1019mb 53f 52f
1:50pm 10ft 13s 7s 27 36 mph 1019.4mb 53f 52f
1:20pm  -   -   -  27 36 mph 1019.4mb 53f 53f
12:50pm 8ft 14s 7s 27 34 mph 1020.1mb 53f 53f
12:20pm  -   -   -  13 22 mph 1021.6mb 53f 53f
11:50am 8.5ft 13s 8s 13 18 mph 1022mb 53f 51f
11:20am  -   -   -  13 18 mph 1022.4mb 53f 51f
10:50am 9ft 13s 8s 18 25 mph 1022.4mb 53f 50f
10:20am  -   -   -  18 20 mph 1023mb 53f 50f
9:50am 10ft 13s 8s 18 22 mph 1023.4mb 53f 49f
9:20am  -   -   -  16 22 mph 1023.7mb 53f 47f
8:50am 9ft 13s 9s 18 25 mph 1023.8mb 53f 49f
8:20am  -   -   -  18 25 mph 1023.8mb 53f 49f
7:50am 9ft 12s 8s 18 22 mph 1024.1mb 53f 50f
7:20am  -   -   -  18 25 mph 1024.3mb 53f 50f
6:50am 9.5ft 14s 9s 16 20 mph 1024.4mb 53f 49f
6:20am  -   -   -  18 20 mph 1024.6mb 53f 50f
5:50am 9.5ft 13s 9s 16 20 mph 1025.1mb 53f 50f
5:20am  -   -   -  16 18 mph 1025.6mb 53f 49f
4:50am 10ft 13s 9s 13 16 mph 1025.8mb 53f 49f
4:20am  -   -   -  16 18 mph 1025.7mb 53f 48f
3:50am 10ft 13s 9s 13 20 mph 1026.1mb 53f 48f
3:20am  -   -   -  16 20 mph 1026.1mb 52f 48f
2:50am 11.5ft 14s 9s 13 18 mph 1026.5mb 52f 48f
2:20am  -   -   -  13 16 mph 1026.5mb 51f 47f
1:50am 12ft 14s 9s 11 16 mph 1026.6mb 51f 47f
1:20am  -   -   -  13 18 mph 1026.2mb 50f 47f
12:50am 11.5ft 13s 9s 13 20 mph 1026.4mb 50f 47f
12:20am  -   -   -  13 18 mph 1026.4mb 50f 47f
Sun 11/23 11:50pm 10.5ft 14s 9s 16 20 mph 1026.1mb 50f 47f
11:20pm  -   -   -  11 18 mph 1026.3mb 50f 47f
10:50pm 10.5ft 12s 9s 11 16 mph 1026mb 50f 47f
10:20pm  -   -   -  9 16 mph 1025.8mb 50f 48f
9:50pm 11.5ft 14s 9s 9 11 mph 1025.3mb 51f 52f
9:20pm  -   -   -  11 16 mph 1025.2mb 51f 52f
8:50pm 12ft 13s 9s 9 13 mph 1024.7mb 51f 52f
8:20pm  -   -   -  7 11 mph 1024.9mb 51f 51f
7:50pm 11.5ft 12s 9s 9 11 mph 1024.6mb 54f 50f
7:20pm  -   -   -  7 11 mph 1024.8mb 54f 50f
6:50pm 13ft 12s 10s 13 18 mph 1024.4mb 54f 51f
6:20pm  -   -   -  13 18 mph 1024.3mb 54f 53f
5:50pm 11.5ft 12s 9s 13 18 mph 1024.3mb 54f 52f
5:20pm  -   -   -  13 18 mph 1023.7mb 54f 52f
4:50pm 12ft 12s 9s 13 18 mph 1022.9mb 54f 52f
4:20pm  -   -   -  16 18 mph 1022.4mb 54f 52f
3:50pm 13ft 13s 9s 16 18 mph 1022.4mb 54f 52f
3:20pm  -   -   -  13 16 mph 1022mb 54f 52f
2:50pm 13ft 13s 8s 16 20 mph 1021.6mb 54f 51f
2:20pm  -   -   -  18 22 mph 1021.1mb 54f 52f
1:50pm 12ft 13s 8s 22 27 mph 1020.9mb 54f 52f
1:20pm  -   -   -  25 29 mph 1020.6mb 54f 53f
12:50pm 13ft 13s 8s 22 29 mph 1020.2mb 54f 52f
12:20pm  -   -   -  20 25 mph 1020.2mb 54f 52f
11:50am 13ft 13s 8s 18 22 mph 1020mb 54f 51f
11:20am  -   -   -  22 29 mph 1019.7mb 54f 49f
10:50am 12ft 13s 8s 22 29 mph 1019.3mb 54f 50f
10:20am  -   -   -  22 29 mph 1018.6mb 54f 52f
9:50am 12ft 13s 8s 25 31 mph 1018.1mb 54f 53f
9:20am  -   -   -  25 31 mph 1017.5mb 54f 52f
8:50am 10ft 14s 7s 25 29 mph 1016.9mb 54f 52f
8:20am  -   -   -  22 29 mph 1016.4mb 54f 51f
7:50am 11ft 14s  -  20 27 mph 1016.4mb 54f 51f
7:20am  -   -   -  25 27 mph 1016mb 54f 50f
6:50am 10.5ft 14s 7s 25 31 mph 1015.5mb 54f 53f
6:20am  -   -   -  25 29 mph 1015.3mb 54f 51f
5:50am 9.5ft 14s 7s 25 27 mph 1015mb 54f 51f
5:20am  -   -   -  22 27 mph 1014.8mb 54f 51f
4:50am 10ft 14s 7s 29 47 mph 1014.5mb 54f 51f
4:20am  -   -   -  29 36 mph 1014.4mb 54f 53f
3:50am 8.5ft 11s 6s 29 36 mph 1014.3mb 54f 54f
3:20am  -   -   -  34 40 mph 1014.1mb 54f 53f
2:50am 10ft 13s 8s 22 29 mph 1014.9mb 54f 51f
2:20am  -   -   -  20 25 mph 1015.6mb 54f 52f
1:50am 9ft 11s 7s 18 27 mph 1016.6mb 54f 52f
1:20am  -   -   -  18 27 mph 1016.8mb 54f 52f
12:50am 11ft 13s 8s 13 18 mph 1017.3mb 54f 51f
12:20am  -   -   -  18 20 mph 1017.1mb 53f 53f
Sat 11/22 11:50pm 11ft 13s 8s 16 20 mph 1017.4mb 53f 53f
11:20pm  -   -   -  20 22 mph 1017.2mb 53f 53f
10:50pm 11ft 13s 9s 9 13 mph 1017.4mb 53f 52f
10:20pm  -   -   -  13 18 mph 1017.4mb 53f 52f
9:50pm 10ft 13s 9s 13 16 mph 1017.4mb 53f 50f
9:20pm  -   -   -  11 16 mph 1017.3mb 54f 52f
8:50pm 10ft 14s 10s 9 11 mph 1017.4mb 54f 51f
8:20pm  -   -   -  7 9 mph 1017.1mb 54f 51f
7:50pm 9ft 13s 9s 7 11 mph 1016.8mb 54f 50f
6:50pm 10.5ft 14s 10s 7 9 mph 1016.2mb 53f 49f
6:20pm  -   -   -  9 11 mph 1016.2mb 53f 49f
5:50pm 9ft 14s 9s 7 11 mph 1015.6mb 54f 50f
5:20pm  -   -   -  7 9 mph 1015.2mb 54f 50f
4:50pm 9ft 15s 9s 9 11 mph 1015mb 54f 50f
4:20pm  -   -   -  9 16 mph 1014.7mb 54f 48f
3:50pm 9ft 12s 8s 16 25 mph 1013.9mb 54f 51f
3:20pm  -   -   -  16 18 mph 1013.3mb 54f 52f
2:50pm 8.5ft 16s 8s 16 20 mph 1012.8mb 54f 52f
2:20pm  -   -   -  16 18 mph 1012.3mb 54f 51f
1:50pm 9ft 13s 8s 18 20 mph 1011.8mb 54f 51f
1:20pm  -   -   -  16 20 mph 1011.2mb 53f 52f
12:50pm 9ft 13s 8s 16 20 mph 1010.4mb 53f 51f
12:20pm  -   -   -  18 20 mph 1009.9mb 53f 51f
11:50am 9.5ft 12s 9s 13 18 mph 1009.4mb 53f 51f
11:20am  -   -   -  11 13 mph 1008.9mb 54f 50f
10:50am 11ft 11s 9s 7 11 mph 1008.4mb 54f 50f
10:20am  -   -   -  4 7 mph 1007.7mb 54f 49f
9:50am 9.5ft 15s 9s 4 7 mph 1007mb 54f 49f
9:20am  -   -   -  7 11 mph 1006.4mb 54f 48f
8:50am 10ft 15s 9s 16 18 mph 1005.6mb 54f 50f
8:20am  -   -   -  16 20 mph 1004.7mb 54f 51f
7:50am 11ft 15s 10s 16 20 mph 1004.3mb 54f 51f
7:20am  -   -   -  2 9 mph 1004.1mb 54f 49f
6:50am 9ft 15s 9s 2 4 mph 1003.8mb 54f 48f
6:20am  -   -   -  4 7 mph 1003.3mb 53f 49f
5:50am 10ft 16s 9s 4 7 mph 1003.2mb 53f 49f
5:20am  -   -   -  7 11 mph 1003.1mb 53f 48f
4:50am 9ft 16s 8s 16 22 mph 1002.6mb 53f 48f
4:20am  -   -   -  9 16 mph 1002.3mb 53f 48f
3:50am 8.5ft 11s 7s 11 16 mph 1002mb 53f 48f
3:20am  -   -   -  13 16 mph 1001.8mb 53f 50f
2:50am 9.5ft 10s 7s 16 18 mph 1001.6mb 53f 49f
2:20am  -   -   -  18 22 mph 1001.4mb 53f 47f